Accueil
METAR-TAF:

METAR-TAF

Aéroports :

Northolt, Angleterre

Station RAF de Northolt

latitude: 51-33N, longitude: 000-25W, altitude: 38 m

Observation

Le bulletin a été fait il y a 58 minutes, à 07:50 UTC
Vent 5 kt de ouest/nord-ouest
Température 16°C
Humidité 68%
Pression 1020 hPa
Visibilité 10 km ou plus
Nuages fragmentés à une hauteur de 4500 ft

METAR: EGWU 230750Z 29005KT 9999 BKN045 16/10 Q1020 BLU NOSIG

Heure: 09:48 (08:48 UTC)

Prévision

Le bulletin a été fait il y a 1 heure et 5 minutes, à 07:43 UTC
Prévision valable du 23 à 09 UTC au 24 à 03 UTC
Vent 7 kt de ouest
Visibilité 10 km ou plus
Nuages épars à une hauteur de 3000 ft
Probabilité 30% :
Temporairement
du 23 à 10 UTC au 23 à 15 UTC
Nuages épars à une hauteur de 2200 ft

TAF: EGWU 230743Z 2309/2403 27007KT 9999 SCT030 PROB30 TEMPO 2310/2315 SCT022

Observations et prévisions météorologiques de plus de 4000 aéroports (messages METAR et TAF).

Les stations disponibles sont représentées par des disques jaunes et rouges sur la carte.

Passer la souris dessus pour voir le nom de la station.

Cliquer dessus pour voir les observations et prévisions météorologiques.

Pour changer de carte: cliquez sur les boutons verts avec une croix noire pour zoomer, sur le bouton vert avec un tiret pour effectuer un zoom arrière, ou sur les flèches vertes pour les cartes adjacentes.


METAR-TAF: